DEMMD EDDH-EDDH
Flight info
| Callsign | DEMMD |
|---|---|
| Flight time | 0h 2m |
| Altitude | |
| Route | VFR |
| Aircraft | SF50 |
Departure
| Time | 2026-04-25 17:39 |
|---|---|
| Airport | Hamburg Helmut Schmidt Airport (EDDH) |
Arrival
| Time | 2026-04-25 17:42 |
|---|---|
| Airport | Hamburg Helmut Schmidt Airport (EDDH) |
| Time | Latitude | Longitude | Altitude | Speed | Heading |
|---|---|---|---|---|---|
| 2026-04-25 17:27 | 53.63181 | 9.99923 | 39 ft | 0 kts | 319° |
| 2026-04-25 17:32 | 53.63182 | 9.99920 | 39 ft | 2 kts | 263° |
| 2026-04-25 17:33 | 53.63179 | 9.99915 | 39 ft | 0 kts | 190° |
| 2026-04-25 17:33 | 53.63151 | 9.99922 | 39 ft | 8 kts | 188° |
| 2026-04-25 17:33 | 53.63144 | 9.99837 | 39 ft | 12 kts | 323° |
| 2026-04-25 17:33 | 53.63217 | 9.99768 | 39 ft | 10 kts | 333° |
| 2026-04-25 17:34 | 53.63259 | 9.99715 | 39 ft | 5 kts | 308° |
| 2026-04-25 17:34 | 53.63270 | 9.99685 | 39 ft | 0 kts | 295° |
| 2026-04-25 17:38 | 53.63271 | 9.99679 | 39 ft | 3 kts | 281° |
| 2026-04-25 17:38 | 53.63272 | 9.99662 | 38 ft | 4 kts | 255° |
| 2026-04-25 17:38 | 53.63288 | 9.99545 | 38 ft | 12 kts | 284° |
| 2026-04-25 17:38 | 53.63312 | 9.99439 | 40 ft | 17 kts | 295° |
| 2026-04-25 17:39 | 53.63486 | 9.99231 | 40 ft | 61 kts | 330° |
| 2026-04-25 17:39 | 53.64071 | 9.98685 | 51 ft | 126 kts | 330° |
| 2026-04-25 17:39 | 53.64878 | 9.98174 | 544 ft | 118 kts | 1° |
| 2026-04-25 17:39 | 53.65366 | 9.99153 | 756 ft | 129 kts | 89° |
| 2026-04-25 17:40 | 53.65323 | 10.00753 | 890 ft | 142 kts | 96° |
| 2026-04-25 17:40 | 53.64827 | 10.02104 | 968 ft | 148 kts | 166° |
| 2026-04-25 17:40 | 53.63955 | 10.02760 | 958 ft | 137 kts | 147° |
| 2026-04-25 17:40 | 53.63156 | 10.03582 | 943 ft | 130 kts | 151° |
| 2026-04-25 17:41 | 53.62315 | 10.03912 | 897 ft | 125 kts | 200° |
| 2026-04-25 17:41 | 53.61910 | 10.02648 | 600 ft | 124 kts | 253° |
| 2026-04-25 17:41 | 53.61759 | 10.01377 | 502 ft | 96 kts | 271° |
| 2026-04-25 17:41 | 53.62105 | 10.00435 | 277 ft | 105 kts | 321° |
| 2026-04-25 17:42 | 53.62703 | 9.99887 | 93 ft | 91 kts | 332° |
| 2026-04-25 17:42 | 53.63133 | 9.99510 | 39 ft | 27 kts | 331° |
| 2026-04-25 17:42 | 53.63259 | 9.99399 | 40 ft | 15 kts | 336° |
| 2026-04-25 17:42 | 53.63284 | 9.99401 | 40 ft | 4 kts | 57° |
| 2026-04-25 17:43 | 53.63287 | 9.99537 | 38 ft | 15 kts | 91° |
| 2026-04-25 17:43 | 53.63282 | 9.99610 | 38 ft | 0 kts | 99° |
| 2026-04-25 17:44 | 53.63280 | 9.99635 | 38 ft | 10 kts | 106° |
| 2026-04-25 17:44 | 53.63179 | 9.99601 | 38 ft | 32 kts | 233° |
| 2026-04-25 17:44 | 53.63031 | 9.99262 | 38 ft | 36 kts | 241° |